sensor_id;sensor_type;location;lat;lon;timestamp;pressure;altitude;pressure_sealevel;temperature;humidity
32083;BME280;18597;48.328;7.932;2023-02-23T00:00:26;99218.16;;;9.31;100.00
32083;BME280;18597;48.328;7.932;2023-02-23T00:02:55;99222.56;;;9.42;100.00
32083;BME280;18597;48.328;7.932;2023-02-23T00:05:24;99210.31;;;9.30;100.00
32083;BME280;18597;48.328;7.932;2023-02-23T00:07:51;99214.78;;;9.29;100.00
32083;BME280;18597;48.328;7.932;2023-02-23T00:10:19;99212.25;;;9.28;100.00
32083;BME280;18597;48.328;7.932;2023-02-23T00:12:46;99203.03;;;9.32;100.00
32083;BME280;18597;48.328;7.932;2023-02-23T00:15:14;99202.59;;;9.36;100.00
32083;BME280;18597;48.328;7.932;2023-02-23T00:17:40;99214.00;;;9.38;100.00
32083;BME280;18597;48.328;7.932;2023-02-23T00:20:10;99213.00;;;9.39;100.00
32083;BME280;18597;48.328;7.932;2023-02-23T00:22:39;99211.69;;;9.64;100.00
32083;BME280;18597;48.328;7.932;2023-02-23T00:25:07;99219.53;;;9.56;100.00
32083;BME280;18597;48.328;7.932;2023-02-23T00:27:35;99217.13;;;10.03;100.00
32083;BME280;18597;48.328;7.932;2023-02-23T00:30:04;99215.00;;;9.87;100.00
32083;BME280;18597;48.328;7.932;2023-02-23T00:32:31;99213.91;;;10.09;100.00
32083;BME280;18597;48.328;7.932;2023-02-23T00:34:57;99226.81;;;10.04;100.00
32083;BME280;18597;48.328;7.932;2023-02-23T00:37:23;99224.13;;;9.85;100.00
32083;BME280;18597;48.328;7.932;2023-02-23T00:39:49;99219.78;;;9.84;100.00
32083;BME280;18597;48.328;7.932;2023-02-23T00:42:16;99221.75;;;9.91;100.00
32083;BME280;18597;48.328;7.932;2023-02-23T00:44:42;99218.47;;;9.68;100.00
32083;BME280;18597;48.328;7.932;2023-02-23T00:47:07;99215.03;;;9.57;100.00
32083;BME280;18597;48.328;7.932;2023-02-23T00:49:33;99218.81;;;9.54;100.00
32083;BME280;18597;48.328;7.932;2023-02-23T00:52:00;99218.78;;;9.44;100.00
32083;BME280;18597;48.328;7.932;2023-02-23T00:54:25;99220.03;;;9.40;100.00
32083;BME280;18597;48.328;7.932;2023-02-23T00:56:51;99223.41;;;9.42;100.00
32083;BME280;18597;48.328;7.932;2023-02-23T00:59:18;99217.91;;;9.34;100.00
32083;BME280;18597;48.328;7.932;2023-02-23T01:01:44;99222.66;;;9.31;100.00
32083;BME280;18597;48.328;7.932;2023-02-23T01:04:11;99216.72;;;9.27;100.00
32083;BME280;18597;48.328;7.932;2023-02-23T01:06:38;99211.69;;;9.24;100.00
32083;BME280;18597;48.328;7.932;2023-02-23T01:09:14;99214.84;;;9.39;100.00
32083;BME280;18597;48.328;7.932;2023-02-23T01:11:40;99212.69;;;9.33;100.00
32083;BME280;18597;48.328;7.932;2023-02-23T01:14:09;99212.53;;;9.25;100.00
32083;BME280;18597;48.328;7.932;2023-02-23T01:16:34;99214.78;;;9.29;100.00
32083;BME280;18597;48.328;7.932;2023-02-23T01:19:04;99213.09;;;9.28;100.00
32083;BME280;18597;48.328;7.932;2023-02-23T01:21:34;99212.78;;;9.22;100.00
32083;BME280;18597;48.328;7.932;2023-02-23T01:24:00;99216.56;;;9.19;100.00
32083;BME280;18597;48.328;7.932;2023-02-23T01:26:32;99216.97;;;9.14;100.00
32083;BME280;18597;48.328;7.932;2023-02-23T01:29:05;99207.09;;;9.36;100.00
32083;BME280;18597;48.328;7.932;2023-02-23T01:31:34;99203.38;;;9.17;100.00
32083;BME280;18597;48.328;7.932;2023-02-23T01:34:02;99210.38;;;9.18;100.00
32083;BME280;18597;48.328;7.932;2023-02-23T01:36:33;99212.59;;;9.13;100.00
32083;BME280;18597;48.328;7.932;2023-02-23T01:39:00;99209.09;;;9.13;100.00
32083;BME280;18597;48.328;7.932;2023-02-23T01:41:28;99206.34;;;9.24;100.00
32083;BME280;18597;48.328;7.932;2023-02-23T01:44:05;99208.25;;;9.12;100.00
32083;BME280;18597;48.328;7.932;2023-02-23T01:46:34;99202.34;;;9.09;100.00
32083;BME280;18597;48.328;7.932;2023-02-23T01:49:02;99204.31;;;9.07;100.00
32083;BME280;18597;48.328;7.932;2023-02-23T01:51:33;99211.44;;;9.06;100.00
32083;BME280;18597;48.328;7.932;2023-02-23T01:56:48;99201.19;;;9.02;100.00
32083;BME280;18597;48.328;7.932;2023-02-23T01:59:26;99200.06;;;9.04;100.00
32083;BME280;18597;48.328;7.932;2023-02-23T02:01:54;99204.41;;;9.05;100.00
32083;BME280;18597;48.328;7.932;2023-02-23T02:04:20;99199.22;;;9.04;100.00
32083;BME280;18597;48.328;7.932;2023-02-23T02:06:48;99201.19;;;9.02;100.00
32083;BME280;18597;48.328;7.932;2023-02-23T02:09:19;99198.66;;;9.00;100.00
32083;BME280;18597;48.328;7.932;2023-02-23T02:11:50;99198.66;;;9.00;100.00
32083;BME280;18597;48.328;7.932;2023-02-23T02:14:29;99196.09;;;8.99;100.00
32083;BME280;18597;48.328;7.932;2023-02-23T02:17:26;99197.50;;;8.93;100.00
32083;BME280;18597;48.328;7.932;2023-02-23T02:23:41;99193.38;;;8.89;100.00
32083;BME280;18597;48.328;7.932;2023-02-23T02:29:54;99189.19;;;8.86;100.00
32083;BME280;18597;48.328;7.932;2023-02-23T02:39:27;99186.47;;;8.77;100.00
32083;BME280;18597;48.328;7.932;2023-02-23T02:42:32;99185.66;;;8.86;100.00
32083;BME280;18597;48.328;7.932;2023-02-23T02:45:56;99174.22;;;8.95;100.00
32083;BME280;18597;48.328;7.932;2023-02-23T02:48:48;99185.47;;;8.78;100.00
32083;BME280;18597;48.328;7.932;2023-02-23T02:51:32;99181.13;;;8.77;100.00
32083;BME280;18597;48.328;7.932;2023-02-23T02:56:53;99184.56;;;8.68;100.00
32083;BME280;18597;48.328;7.932;2023-02-23T02:59:23;99173.19;;;8.66;100.00
32083;BME280;18597;48.328;7.932;2023-02-23T03:02:17;99178.00;;;8.72;100.00
32083;BME280;18597;48.328;7.932;2023-02-23T03:05:18;99168.53;;;8.79;100.00
32083;BME280;18597;48.328;7.932;2023-02-23T03:11:04;99168.69;;;8.45;100.00
32083;BME280;18597;48.328;7.932;2023-02-23T03:17:42;99173.84;;;8.26;100.00
32083;BME280;18597;48.328;7.932;2023-02-23T03:20:46;99170.50;;;8.24;100.00
32083;BME280;18597;48.328;7.932;2023-02-23T03:24:10;99164.50;;;8.11;100.00
32083;BME280;18597;48.328;7.932;2023-02-23T03:27:04;99168.22;;;8.08;100.00
32083;BME280;18597;48.328;7.932;2023-02-23T03:30:01;99168.00;;;8.11;100.00
32083;BME280;18597;48.328;7.932;2023-02-23T03:32:55;99159.53;;;8.38;100.00
32083;BME280;18597;48.328;7.932;2023-02-23T03:36:08;99163.84;;;8.18;100.00
32083;BME280;18597;48.328;7.932;2023-02-23T03:39:09;99166.88;;;8.14;100.00
32083;BME280;18597;48.328;7.932;2023-02-23T03:41:58;99171.97;;;8.17;100.00
32083;BME280;18597;48.328;7.932;2023-02-23T03:44:47;99167.72;;;8.14;100.00
32083;BME280;18597;48.328;7.932;2023-02-23T03:47:37;99167.91;;;8.01;100.00
32083;BME280;18597;48.328;7.932;2023-02-23T03:50:34;99173.00;;;7.93;100.00
32083;BME280;18597;48.328;7.932;2023-02-23T03:53:30;99176.63;;;7.92;100.00
32083;BME280;18597;48.328;7.932;2023-02-23T03:56:19;99175.13;;;8.11;100.00
32083;BME280;18597;48.328;7.932;2023-02-23T03:59:08;99176.81;;;8.12;100.00
32083;BME280;18597;48.328;7.932;2023-02-23T04:01:57;99175.47;;;8.17;100.00
32083;BME280;18597;48.328;7.932;2023-02-23T04:04:44;99174.53;;;8.07;100.00
32083;BME280;18597;48.328;7.932;2023-02-23T04:07:31;99174.88;;;8.14;100.00
32083;BME280;18597;48.328;7.932;2023-02-23T04:10:19;99173.94;;;8.03;100.00
32083;BME280;18597;48.328;7.932;2023-02-23T04:13:13;99174.44;;;8.09;100.00
32083;BME280;18597;48.328;7.932;2023-02-23T04:16:00;99175.91;;;8.01;100.00
32083;BME280;18597;48.328;7.932;2023-02-23T04:18:38;99176.00;;;8.00;100.00
32083;BME280;18597;48.328;7.932;2023-02-23T04:21:06;99177.94;;;7.98;100.00
32083;BME280;18597;48.328;7.932;2023-02-23T04:23:32;99176.13;;;7.98;100.00
32083;BME280;18597;48.328;7.932;2023-02-23T04:25:58;99180.34;;;8.01;100.00
32083;BME280;18597;48.328;7.932;2023-02-23T04:28:28;99177.59;;;8.02;100.00
32083;BME280;18597;48.328;7.932;2023-02-23T04:30:54;99183.13;;;7.99;100.00
32083;BME280;18597;48.328;7.932;2023-02-23T04:33:21;99174.88;;;8.14;100.00
32083;BME280;18597;48.328;7.932;2023-02-23T04:35:47;99185.06;;;8.09;100.00
32083;BME280;18597;48.328;7.932;2023-02-23T04:38:13;99179.25;;;8.03;100.00
32083;BME280;18597;48.328;7.932;2023-02-23T04:40:39;99177.59;;;8.02;100.00
32083;BME280;18597;48.328;7.932;2023-02-23T04:43:04;99182.41;;;8.09;100.00
32083;BME280;18597;48.328;7.932;2023-02-23T04:45:30;99172.34;;;8.12;100.00
32083;BME280;18597;48.328;7.932;2023-02-23T04:47:56;99169.34;;;8.05;100.00
32083;BME280;18597;48.328;7.932;2023-02-23T04:50:22;99181.78;;;8.05;100.00
32083;BME280;18597;48.328;7.932;2023-02-23T04:52:48;99179.75;;;8.09;100.00
32083;BME280;18597;48.328;7.932;2023-02-23T04:55:19;99183.97;;;8.00;100.00
32083;BME280;18597;48.328;7.932;2023-02-23T04:57:46;99175.38;;;8.07;100.00
32083;BME280;18597;48.328;7.932;2023-02-23T05:00:13;99182.72;;;8.15;100.00
32083;BME280;18597;48.328;7.932;2023-02-23T05:02:39;99178.00;;;8.19;100.00
32083;BME280;18597;48.328;7.932;2023-02-23T05:05:06;99174.09;;;8.23;100.00
32083;BME280;18597;48.328;7.932;2023-02-23T05:07:34;99167.59;;;8.16;100.00
32083;BME280;18597;48.328;7.932;2023-02-23T05:10:01;99174.16;;;8.12;100.00
32083;BME280;18597;48.328;7.932;2023-02-23T05:12:27;99168.06;;;8.21;100.00
32083;BME280;18597;48.328;7.932;2023-02-23T05:14:52;99169.25;;;8.39;100.00
32083;BME280;18597;48.328;7.932;2023-02-23T05:17:18;99172.16;;;8.36;100.00
32083;BME280;18597;48.328;7.932;2023-02-23T05:19:44;99173.03;;;8.25;100.00
32083;BME280;18597;48.328;7.932;2023-02-23T05:22:10;99179.31;;;8.24;100.00
32083;BME280;18597;48.328;7.932;2023-02-23T05:24:41;99172.50;;;8.31;100.00
32083;BME280;18597;48.328;7.932;2023-02-23T05:27:10;99168.75;;;8.34;100.00
32083;BME280;18597;48.328;7.932;2023-02-23T05:29:38;99176.25;;;8.29;100.00
32083;BME280;18597;48.328;7.932;2023-02-23T05:32:05;99167.16;;;8.43;100.00
32083;BME280;18597;48.328;7.932;2023-02-23T05:34:31;99163.91;;;8.39;100.00
32083;BME280;18597;48.328;7.932;2023-02-23T05:36:57;99172.47;;;8.43;100.00
32083;BME280;18597;48.328;7.932;2023-02-23T05:39:23;99166.88;;;8.46;100.00
32083;BME280;18597;48.328;7.932;2023-02-23T05:41:48;99172.53;;;8.52;100.00
32083;BME280;18597;48.328;7.932;2023-02-23T05:44:14;99174.56;;;8.39;100.00
32083;BME280;18597;48.328;7.932;2023-02-23T05:46:40;99177.47;;;8.36;100.00
32083;BME280;18597;48.328;7.932;2023-02-23T05:49:06;99168.25;;;8.40;100.00
32083;BME280;18597;48.328;7.932;2023-02-23T05:51:33;99172.19;;;8.25;100.00
32083;BME280;18597;48.328;7.932;2023-02-23T05:53:59;99173.22;;;8.33;100.00
32083;BME280;18597;48.328;7.932;2023-02-23T05:56:27;99167.53;;;8.38;100.00
32083;BME280;18597;48.328;7.932;2023-02-23T05:58:55;99175.97;;;8.43;100.00
32083;BME280;18597;48.328;7.932;2023-02-23T06:01:23;99176.97;;;8.42;100.00
32083;BME280;18597;48.328;7.932;2023-02-23T06:03:49;99177.22;;;8.39;100.00
32083;BME280;18597;48.328;7.932;2023-02-23T06:06:16;99171.16;;;8.37;100.00
32083;BME280;18597;48.328;7.932;2023-02-23T06:08:42;99180.13;;;8.36;100.00
32083;BME280;18597;48.328;7.932;2023-02-23T06:11:08;99177.47;;;8.36;100.00
32083;BME280;18597;48.328;7.932;2023-02-23T06:13:34;99182.06;;;8.34;100.00
32083;BME280;18597;48.328;7.932;2023-02-23T06:16:00;99187.88;;;8.28;100.00
32083;BME280;18597;48.328;7.932;2023-02-23T06:18:28;99188.50;;;8.20;100.00
32083;BME280;18597;48.328;7.932;2023-02-23T06:20:54;99178.16;;;8.06;100.00
32083;BME280;18597;48.328;7.932;2023-02-23T06:23:20;99190.38;;;8.09;100.00
32083;BME280;18597;48.328;7.932;2023-02-23T06:25:47;99186.69;;;8.21;100.00
32083;BME280;18597;48.328;7.932;2023-02-23T06:28:13;99187.03;;;8.27;100.00
32083;BME280;18597;48.328;7.932;2023-02-23T06:30:40;99189.44;;;8.30;100.00
32083;BME280;18597;48.328;7.932;2023-02-23T06:33:07;99191.94;;;8.43;100.00
32083;BME280;18597;48.328;7.932;2023-02-23T06:35:33;99194.28;;;8.37;100.00
32083;BME280;18597;48.328;7.932;2023-02-23T06:38:00;99200.81;;;8.32;100.00
32083;BME280;18597;48.328;7.932;2023-02-23T06:40:26;99203.84;;;8.39;100.00
32083;BME280;18597;48.328;7.932;2023-02-23T06:42:53;99207.78;;;8.45;100.00
32083;BME280;18597;48.328;7.932;2023-02-23T06:45:19;99211.69;;;8.41;100.00
32083;BME280;18597;48.328;7.932;2023-02-23T06:47:45;99211.63;;;8.52;100.00
32083;BME280;18597;48.328;7.932;2023-02-23T06:50:13;99205.78;;;8.58;100.00
32083;BME280;18597;48.328;7.932;2023-02-23T06:52:39;99207.25;;;8.62;100.00
32083;BME280;18597;48.328;7.932;2023-02-23T06:55:06;99207.34;;;8.60;100.00
32083;BME280;18597;48.328;7.932;2023-02-23T06:57:32;99216.91;;;8.63;100.00
32083;BME280;18597;48.328;7.932;2023-02-23T06:59:58;99221.31;;;8.74;100.00
32083;BME280;18597;48.328;7.932;2023-02-23T07:02:26;99217.31;;;8.79;100.00
32083;BME280;18597;48.328;7.932;2023-02-23T07:04:52;99222.38;;;8.82;100.00
32083;BME280;18597;48.328;7.932;2023-02-23T07:07:17;99219.84;;;8.81;100.00
32083;BME280;18597;48.328;7.932;2023-02-23T07:09:43;99214.84;;;8.87;100.00
32083;BME280;18597;48.328;7.932;2023-02-23T07:12:10;99221.47;;;8.93;100.00
32083;BME280;18597;48.328;7.932;2023-02-23T07:14:36;99230.16;;;8.95;100.00
32083;BME280;18597;48.328;7.932;2023-02-23T07:17:03;99234.69;;;8.83;100.00
32083;BME280;18597;48.328;7.932;2023-02-23T07:19:31;99233.22;;;8.90;100.00
32083;BME280;18597;48.328;7.932;2023-02-23T07:21:57;99231.16;;;8.94;100.00
32083;BME280;18597;48.328;7.932;2023-02-23T07:24:23;99234.00;;;9.02;100.00
32083;BME280;18597;48.328;7.932;2023-02-23T07:26:49;99230.09;;;9.06;100.00
32083;BME280;18597;48.328;7.932;2023-02-23T07:29:16;99234.03;;;9.12;100.00
32083;BME280;18597;48.328;7.932;2023-02-23T07:31:42;99240.88;;;9.26;100.00
32083;BME280;18597;48.328;7.932;2023-02-23T07:34:08;99239.53;;;9.41;100.00
32083;BME280;18597;48.328;7.932;2023-02-23T07:36:35;99235.91;;;9.52;100.00
32083;BME280;18597;48.328;7.932;2023-02-23T07:39:03;99235.97;;;9.61;100.00
32083;BME280;18597;48.328;7.932;2023-02-23T07:41:29;99235.56;;;9.35;100.00
32083;BME280;18597;48.328;7.932;2023-02-23T07:43:57;99233.44;;;9.29;100.00
32083;BME280;18597;48.328;7.932;2023-02-23T07:46:24;99228.88;;;9.41;100.00
32083;BME280;18597;48.328;7.932;2023-02-23T07:48:50;99239.53;;;9.41;100.00
32083;BME280;18597;48.328;7.932;2023-02-23T07:51:17;99227.00;;;9.62;100.00
32083;BME280;18597;48.328;7.932;2023-02-23T07:53:43;99235.81;;;9.53;100.00
32083;BME280;18597;48.328;7.932;2023-02-23T07:56:11;99235.00;;;9.62;100.00
32083;BME280;18597;48.328;7.932;2023-02-23T07:58:39;99234.28;;;9.60;100.00
32083;BME280;18597;48.328;7.932;2023-02-23T08:01:06;99234.09;;;9.83;100.00
32083;BME280;18597;48.328;7.932;2023-02-23T08:03:32;99241.28;;;9.92;100.00
32083;BME280;18597;48.328;7.932;2023-02-23T08:05:58;99237.22;;;9.97;100.00
32083;BME280;18597;48.328;7.932;2023-02-23T08:08:25;99243.84;;;10.13;100.00
32083;BME280;18597;48.328;7.932;2023-02-23T08:10:59;99239.06;;;10.16;100.00
32083;BME280;18597;48.328;7.932;2023-02-23T08:13:25;99245.53;;;10.14;100.00
32083;BME280;18597;48.328;7.932;2023-02-23T08:15:51;99246.25;;;10.16;100.00
32083;BME280;18597;48.328;7.932;2023-02-23T08:18:17;99244.59;;;10.24;100.00
32083;BME280;18597;48.328;7.932;2023-02-23T08:20:43;99250.38;;;10.49;100.00
32083;BME280;18597;48.328;7.932;2023-02-23T08:23:08;99247.28;;;10.73;100.00
32083;BME280;18597;48.328;7.932;2023-02-23T08:25:36;99253.16;;;11.05;100.00
32083;BME280;18597;48.328;7.932;2023-02-23T08:28:02;99240.31;;;11.28;100.00
32083;BME280;18597;48.328;7.932;2023-02-23T08:30:29;99243.56;;;11.59;100.00
32083;BME280;18597;48.328;7.932;2023-02-23T08:32:56;99243.06;;;11.83;100.00
32083;BME280;18597;48.328;7.932;2023-02-23T08:35:22;99254.41;;;12.22;100.00
32083;BME280;18597;48.328;7.932;2023-02-23T08:37:48;99251.75;;;12.40;100.00
32083;BME280;18597;48.328;7.932;2023-02-23T08:40:14;99255.22;;;12.23;100.00
32083;BME280;18597;48.328;7.932;2023-02-23T08:42:41;99248.47;;;12.01;100.00
32083;BME280;18597;48.328;7.932;2023-02-23T08:45:08;99255.31;;;11.86;100.00
32083;BME280;18597;48.328;7.932;2023-02-23T08:47:35;99256.69;;;11.53;100.00
32083;BME280;18597;48.328;7.932;2023-02-23T08:50:02;99261.53;;;11.30;100.00
32083;BME280;18597;48.328;7.932;2023-02-23T08:52:30;99245.97;;;11.06;100.00
32083;BME280;18597;48.328;7.932;2023-02-23T08:54:56;99249.50;;;11.06;100.00
32083;BME280;18597;48.328;7.932;2023-02-23T08:57:22;99251.31;;;11.16;100.00
32083;BME280;18597;48.328;7.932;2023-02-23T08:59:48;99256.25;;;11.01;100.00
32083;BME280;18597;48.328;7.932;2023-02-23T09:02:14;99255.13;;;11.13;100.00
32083;BME280;18597;48.328;7.932;2023-02-23T09:04:40;99255.47;;;11.37;100.00
32083;BME280;18597;48.328;7.932;2023-02-23T09:07:09;99260.91;;;11.55;100.00
32083;BME280;18597;48.328;7.932;2023-02-23T09:09:37;99252.97;;;11.73;100.00
32083;BME280;18597;48.328;7.932;2023-02-23T09:12:04;99261.91;;;11.91;100.00
32083;BME280;18597;48.328;7.932;2023-02-23T09:14:30;99255.75;;;12.09;100.00
32083;BME280;18597;48.328;7.932;2023-02-23T09:16:57;99263.19;;;12.15;100.00
32083;BME280;18597;48.328;7.932;2023-02-23T09:19:23;99260.16;;;12.28;100.00
32083;BME280;18597;48.328;7.932;2023-02-23T09:21:49;99263.13;;;12.25;100.00
32083;BME280;18597;48.328;7.932;2023-02-23T09:24:15;99265.41;;;12.02;100.00
32083;BME280;18597;48.328;7.932;2023-02-23T09:26:43;99258.94;;;11.94;100.00
32083;BME280;18597;48.328;7.932;2023-02-23T09:29:09;99272.72;;;12.00;100.00
32083;BME280;18597;48.328;7.932;2023-02-23T09:31:35;99268.28;;;12.08;100.00
32083;BME280;18597;48.328;7.932;2023-02-23T09:34:01;99272.34;;;11.94;100.00
32083;BME280;18597;48.328;7.932;2023-02-23T09:36:27;99266.72;;;11.88;100.00
32083;BME280;18597;48.328;7.932;2023-02-23T09:38:55;99268.81;;;11.94;100.00
32083;BME280;18597;48.328;7.932;2023-02-23T09:49:38;99270.53;;;12.13;100.00
32083;BME280;18597;48.328;7.932;2023-02-23T09:52:14;99267.44;;;12.35;100.00
32083;BME280;18597;48.328;7.932;2023-02-23T09:54:41;99266.59;;;12.53;100.00
32083;BME280;18597;48.328;7.932;2023-02-23T09:57:15;99260.47;;;12.60;100.00
32083;BME280;18597;48.328;7.932;2023-02-23T09:59:43;99268.97;;;12.73;100.00
32083;BME280;18597;48.328;7.932;2023-02-23T10:02:33;99258.00;;;13.02;100.00
32083;BME280;18597;48.328;7.932;2023-02-23T10:05:06;99260.03;;;13.26;100.00
32083;BME280;18597;48.328;7.932;2023-02-23T10:07:52;99264.75;;;13.58;100.00
32083;BME280;18597;48.328;7.932;2023-02-23T10:10:58;99262.22;;;13.83;100.00
32083;BME280;18597;48.328;7.932;2023-02-23T10:16:42;99257.38;;;14.37;100.00
32083;BME280;18597;48.328;7.932;2023-02-23T10:19:25;99257.44;;;14.69;100.00
32083;BME280;18597;48.328;7.932;2023-02-23T10:22:03;99253.25;;;14.99;100.00
32083;BME280;18597;48.328;7.932;2023-02-23T10:24:39;99251.69;;;15.38;100.00
32083;BME280;18597;48.328;7.932;2023-02-23T10:27:16;99253.44;;;15.86;100.00
32083;BME280;18597;48.328;7.932;2023-02-23T10:29:55;99247.97;;;16.42;100.00
32083;BME280;18597;48.328;7.932;2023-02-23T10:32:45;99248.66;;;16.89;99.19
32083;BME280;18597;48.328;7.932;2023-02-23T10:35:17;99247.53;;;17.22;92.79
32083;BME280;18597;48.328;7.932;2023-02-23T10:37:45;99245.00;;;17.20;87.64
32083;BME280;18597;48.328;7.932;2023-02-23T10:40:17;99242.38;;;17.12;85.65
32083;BME280;18597;48.328;7.932;2023-02-23T10:42:46;99243.88;;;17.14;84.29
32083;BME280;18597;48.328;7.932;2023-02-23T10:45:15;99248.13;;;17.32;84.11
32083;BME280;18597;48.328;7.932;2023-02-23T10:47:56;99239.94;;;17.40;84.24
32083;BME280;18597;48.328;7.932;2023-02-23T10:50:24;99242.66;;;17.55;80.87
32083;BME280;18597;48.328;7.932;2023-02-23T10:53:03;99231.38;;;17.66;76.47
32083;BME280;18597;48.328;7.932;2023-02-23T10:55:35;99233.16;;;17.88;74.61
32083;BME280;18597;48.328;7.932;2023-02-23T10:58:18;99234.72;;;17.97;74.42
32083;BME280;18597;48.328;7.932;2023-02-23T11:01:04;99223.97;;;18.19;72.75
32083;BME280;18597;48.328;7.932;2023-02-23T11:03:37;99228.25;;;18.28;69.66
32083;BME280;18597;48.328;7.932;2023-02-23T11:06:04;99226.84;;;18.32;69.01
32083;BME280;18597;48.328;7.932;2023-02-23T11:08:34;99221.38;;;18.11;71.79
32083;BME280;18597;48.328;7.932;2023-02-23T11:13:51;99224.31;;;17.65;74.25
32083;BME280;18597;48.328;7.932;2023-02-23T11:16:23;99221.50;;;17.58;75.76
32083;BME280;18597;48.328;7.932;2023-02-23T11:19:01;99220.22;;;17.54;77.22
32083;BME280;18597;48.328;7.932;2023-02-23T11:21:32;99221.59;;;17.65;76.38
32083;BME280;18597;48.328;7.932;2023-02-23T11:24:20;99223.88;;;17.76;74.82
32083;BME280;18597;48.328;7.932;2023-02-23T11:26:49;99226.09;;;17.87;75.49
32083;BME280;18597;48.328;7.932;2023-02-23T11:29:30;99212.94;;;17.99;75.11
32083;BME280;18597;48.328;7.932;2023-02-23T11:31:58;99213.00;;;18.06;71.36
32083;BME280;18597;48.328;7.932;2023-02-23T11:34:33;99215.69;;;18.06;72.50
32083;BME280;18597;48.328;7.932;2023-02-23T11:37:20;99209.22;;;18.00;70.56
32083;BME280;18597;48.328;7.932;2023-02-23T11:40:26;99212.56;;;17.87;73.28
32083;BME280;18597;48.328;7.932;2023-02-23T11:43:05;99208.94;;;17.80;73.09
32083;BME280;18597;48.328;7.932;2023-02-23T11:45:38;99199.38;;;17.78;73.80
32083;BME280;18597;48.328;7.932;2023-02-23T11:48:27;99199.16;;;17.79;74.90
32083;BME280;18597;48.328;7.932;2023-02-23T11:50:56;99200.09;;;17.71;74.53
32083;BME280;18597;48.328;7.932;2023-02-23T11:53:33;99204.00;;;17.54;74.15
32083;BME280;18597;48.328;7.932;2023-02-23T11:56:02;99205.00;;;17.24;76.07
32083;BME280;18597;48.328;7.932;2023-02-23T11:58:47;99208.09;;;16.98;77.24
32083;BME280;18597;48.328;7.932;2023-02-23T12:01:19;99207.13;;;16.76;77.09
32083;BME280;18597;48.328;7.932;2023-02-23T12:03:53;99204.59;;;16.74;77.85
32083;BME280;18597;48.328;7.932;2023-02-23T12:09:16;99195.41;;;16.37;79.53
32083;BME280;18597;48.328;7.932;2023-02-23T12:12:08;99202.19;;;16.33;80.29
32083;BME280;18597;48.328;7.932;2023-02-23T12:14:58;99196.44;;;16.36;80.57
32083;BME280;18597;48.328;7.932;2023-02-23T12:17:35;99195.22;;;16.39;79.28
32083;BME280;18597;48.328;7.932;2023-02-23T12:20:16;99199.69;;;16.24;80.30
32083;BME280;18597;48.328;7.932;2023-02-23T12:22:52;99197.75;;;16.09;84.37
32083;BME280;18597;48.328;7.932;2023-02-23T12:26:08;99197.19;;;15.91;83.65
32083;BME280;18597;48.328;7.932;2023-02-23T12:31:36;99188.59;;;15.96;85.26
32083;BME280;18597;48.328;7.932;2023-02-23T12:34:18;99181.16;;;16.29;85.51
32083;BME280;18597;48.328;7.932;2023-02-23T12:36:54;99184.69;;;16.52;81.03
32083;BME280;18597;48.328;7.932;2023-02-23T12:39:44;99175.38;;;16.55;79.54
32083;BME280;18597;48.328;7.932;2023-02-23T12:42:34;99172.69;;;16.55;79.78
32083;BME280;18597;48.328;7.932;2023-02-23T12:45:05;99174.72;;;16.53;79.88
32083;BME280;18597;48.328;7.932;2023-02-23T12:50:36;99180.75;;;16.63;80.62
32083;BME280;18597;48.328;7.932;2023-02-23T12:53:24;99175.88;;;16.81;77.64
32083;BME280;18597;48.328;7.932;2023-02-23T12:56:38;99169.13;;;17.15;74.98
32083;BME280;18597;48.328;7.932;2023-02-23T13:02:15;99171.09;;;17.06;72.62
32083;BME280;18597;48.328;7.932;2023-02-23T13:05:08;99173.13;;;16.89;76.48
32083;BME280;18597;48.328;7.932;2023-02-23T13:07:54;99164.56;;;16.63;77.79
32083;BME280;18597;48.328;7.932;2023-02-23T13:10:55;99165.81;;;16.52;77.66
32083;BME280;18597;48.328;7.932;2023-02-23T13:13:53;99169.16;;;16.54;79.24
32083;BME280;18597;48.328;7.932;2023-02-23T13:16:47;99166.75;;;16.59;79.85
32083;BME280;18597;48.328;7.932;2023-02-23T13:19:46;99168.81;;;16.57;78.69
32083;BME280;18597;48.328;7.932;2023-02-23T13:22:57;99161.25;;;16.30;81.38
32083;BME280;18597;48.328;7.932;2023-02-23T13:28:38;99166.00;;;16.28;82.22
32083;BME280;18597;48.328;7.932;2023-02-23T13:31:36;99160.22;;;16.31;81.31
32083;BME280;18597;48.328;7.932;2023-02-23T13:34:10;99153.94;;;16.38;82.02
32083;BME280;18597;48.328;7.932;2023-02-23T13:36:38;99161.69;;;16.42;80.33
32083;BME280;18597;48.328;7.932;2023-02-23T13:39:47;99169.34;;;16.53;78.93
32083;BME280;18597;48.328;7.932;2023-02-23T13:46:11;99159.50;;;16.60;78.74
32083;BME280;18597;48.328;7.932;2023-02-23T13:48:56;99163.69;;;16.40;77.78
32083;BME280;18597;48.328;7.932;2023-02-23T13:51:37;99159.00;;;16.42;78.90
32083;BME280;18597;48.328;7.932;2023-02-23T13:56:54;99151.94;;;16.41;80.31
32083;BME280;18597;48.328;7.932;2023-02-23T13:59:22;99148.16;;;16.50;78.33
32083;BME280;18597;48.328;7.932;2023-02-23T14:01:52;99152.41;;;16.44;77.01
32083;BME280;18597;48.328;7.932;2023-02-23T14:04:38;99152.63;;;16.57;76.70
32083;BME280;18597;48.328;7.932;2023-02-23T14:07:22;99148.38;;;16.63;75.79
32083;BME280;18597;48.328;7.932;2023-02-23T14:09:57;99151.31;;;16.76;75.65
32083;BME280;18597;48.328;7.932;2023-02-23T14:12:41;99146.41;;;16.80;76.13
32083;BME280;18597;48.328;7.932;2023-02-23T14:18:28;99140.81;;;16.58;76.56
32083;BME280;18597;48.328;7.932;2023-02-23T14:21:40;99139.69;;;16.30;77.56
32083;BME280;18597;48.328;7.932;2023-02-23T14:24:03;99148.03;;;16.20;78.85
32083;BME280;18597;48.328;7.932;2023-02-23T14:26:38;99137.63;;;16.17;78.61
32083;BME280;18597;48.328;7.932;2023-02-23T14:29:26;99145.13;;;16.22;79.06
32083;BME280;18597;48.328;7.932;2023-02-23T14:32:01;99146.22;;;16.35;78.33
32083;BME280;18597;48.328;7.932;2023-02-23T14:35:00;99142.31;;;16.38;78.66
32083;BME280;18597;48.328;7.932;2023-02-23T14:37:42;99141.16;;;16.41;78.49